Time;durP1;ratioP1;P1;durP2;ratioP2;P2;SDS_P1;SDS_P2;PMS_P1;PMS_P2;Temp;Humidity;BMP_temperature;BMP_pressure;BME280_temperature;BME280_humidity;BME280_pressure;Samples;Min_cycle;Max_cycle;Signal;HPM_P1;HPM_P2
2022/03/13 00:01:21;;;;;;;;;50.25;43.00;16.80;99.90;;;;;;5008634;28;9024;-46
2022/03/13 00:03:52;;;;;;;;;50.67;43.33;16.60;99.90;;;;;;5017966;28;8889;-46
2022/03/13 00:06:35;;;;;;;;;52.00;43.67;16.60;99.90;;;;;;5005785;28;9582;-48
2022/03/13 00:09:13;;;;;;;;;22.00;21.75;16.60;99.90;;;;;;5013825;28;9002;-46
2022/03/13 00:11:43;;;;;;;;;1.00;1.00;16.50;99.90;;;;;;5012788;28;12375;-47
2022/03/13 00:14:13;;;;;;;;;2.00;2.00;16.40;99.90;;;;;;5012375;28;10679;-46
2022/03/13 00:16:49;;;;;;;;;1.00;1.00;16.30;99.90;;;;;;5009735;28;10595;-47
2022/03/13 00:19:20;;;;;;;;;1.00;1.00;16.20;99.90;;;;;;5015201;28;10712;-48
2022/03/13 00:21:54;;;;;;;;;1.00;1.00;16.10;99.90;;;;;;5012590;28;10768;-46
2022/03/13 00:24:24;;;;;;;;;0.75;0.75;16.10;99.90;;;;;;5012171;28;10720;-44
2022/03/13 00:26:54;;;;;;;;;1.00;1.00;16.10;99.90;;;;;;5008915;28;10931;-46
2022/03/13 00:29:25;;;;;;;;;1.75;1.75;16.10;99.90;;;;;;5011354;28;10761;-45
2022/03/13 00:31:57;;;;;;;;;0.00;0.00;16.20;99.90;;;;;;5008803;28;10806;-48
2022/03/13 00:34:28;;;;;;;;;1.50;1.50;16.00;99.90;;;;;;5013179;28;10680;-47
2022/03/13 00:37:00;;;;;;;;;2.00;2.00;16.00;99.90;;;;;;5007975;28;10788;-44
2022/03/13 00:39:34;;;;;;;;;1.00;1.00;16.10;99.90;;;;;;5011402;28;10791;-44
2022/03/13 00:42:05;;;;;;;;;1.00;1.00;16.00;99.90;;;;;;5010411;28;10723;-46
2022/03/13 00:44:35;;;;;;;;;1.00;1.00;15.90;99.90;;;;;;5011713;28;10888;-47
2022/03/13 00:47:06;;;;;;;;;1.00;1.00;15.90;99.90;;;;;;5010605;28;10778;-46
2022/03/13 00:49:36;;;;;;;;;1.00;1.00;15.90;99.90;;;;;;5012397;28;10794;-45
2022/03/13 00:52:11;;;;;;;;;2.00;1.75;15.90;99.90;;;;;;5014791;28;10751;-49
2022/03/13 00:54:42;;;;;;;;;1.00;1.00;15.80;99.90;;;;;;5011860;28;11115;-48
2022/03/13 00:57:14;;;;;;;;;0.00;0.00;15.80;99.90;;;;;;5017787;28;10818;-46
2022/03/13 00:59:44;;;;;;;;;0.00;0.00;15.70;99.90;;;;;;5014259;28;11017;-45
2022/03/13 01:02:15;;;;;;;;;1.00;1.00;15.80;99.90;;;;;;5009600;28;11041;-45
2022/03/13 01:04:52;;;;;;;;;0.00;0.00;15.80;99.90;;;;;;5011713;28;11002;-45
2022/03/13 01:07:23;;;;;;;;;1.00;1.00;15.80;99.90;;;;;;5007313;28;13274;-47
2022/03/13 01:09:54;;;;;;;;;2.00;0.00;15.70;99.90;;;;;;5012158;28;10962;-43
2022/03/13 01:12:24;;;;;;;;;1.00;1.00;15.70;99.90;;;;;;5015625;28;10948;-44
2022/03/13 01:14:55;;;;;;;;;4.00;1.25;15.70;99.90;;;;;;5013961;28;10932;-45
2022/03/13 01:17:26;;;;;;;;;1.00;1.00;15.70;99.90;;;;;;5007291;28;11070;-47
2022/03/13 01:19:56;;;;;;;;;1.50;1.50;15.60;99.90;;;;;;5015837;28;10992;-47
2022/03/13 01:22:26;;;;;;;;;1.00;1.00;15.60;99.90;;;;;;5008995;28;11038;-49
2022/03/13 01:24:58;;;;;;;;;0.00;0.00;15.60;99.90;;;;;;5011927;28;11663;-50
2022/03/13 01:27:31;;;;;;;;;1.00;1.00;15.50;99.90;;;;;;5009424;28;10992;-46
2022/03/13 01:30:03;;;;;;;;;1.00;1.00;15.50;99.90;;;;;;5010540;28;11067;-45
2022/03/13 01:32:35;;;;;;;;;1.00;1.00;15.50;99.90;;;;;;5008507;28;11602;-44
2022/03/13 01:35:06;;;;;;;;;1.00;1.00;15.40;99.90;;;;;;5011462;28;12040;-42
2022/03/13 01:37:42;;;;;;;;;1.00;1.00;15.30;99.90;;;;;;5021298;28;11156;-44
2022/03/13 01:40:23;;;;;;;;;1.00;1.00;15.30;99.90;;;;;;5008040;28;11058;-47
2022/03/13 01:42:55;;;;;;;;;1.00;1.00;15.40;99.90;;;;;;5012958;28;11353;-48
2022/03/13 01:45:26;;;;;;;;;1.00;1.00;15.30;99.90;;;;;;5007822;28;11940;-46
2022/03/13 01:47:57;;;;;;;;;1.75;1.75;15.20;99.90;;;;;;5003488;28;12232;-44
2022/03/13 01:50:29;;;;;;;;;2.50;2.50;15.20;99.90;;;;;;5015741;28;11104;-45
2022/03/13 01:53:01;;;;;;;;;1.00;1.00;15.20;99.90;;;;;;5029129;28;11168;-46
2022/03/13 01:55:33;;;;;;;;;1.00;1.00;15.10;99.90;;;;;;5015060;28;11217;-44
2022/03/13 01:58:03;;;;;;;;;0.00;0.00;15.00;99.90;;;;;;5010985;28;11001;-45
2022/03/13 02:00:35;;;;;;;;;1.00;1.00;15.10;99.90;;;;;;5008821;28;10827;-44
2022/03/13 02:03:07;;;;;;;;;1.00;1.00;15.10;99.90;;;;;;5009743;28;11260;-46
2022/03/13 02:05:37;;;;;;;;;2.00;2.00;15.00;99.90;;;;;;5015257;28;11633;-46
2022/03/13 02:08:18;;;;;;;;;2.00;2.00;14.90;99.90;;;;;;5009770;28;11686;-45
2022/03/13 02:10:50;;;;;;;;;1.25;1.00;14.80;99.90;;;;;;5008483;28;11468;-44
2022/03/13 02:13:22;;;;;;;;;2.00;2.00;14.70;99.90;;;;;;5008606;28;11743;-45
2022/03/13 02:15:55;;;;;;;;;1.00;1.00;14.70;99.90;;;;;;5010027;28;11463;-46
2022/03/13 02:18:25;;;;;;;;;0.75;0.75;14.70;99.90;;;;;;5012473;28;11594;-45
2022/03/13 02:20:56;;;;;;;;;0.50;0.50;14.70;99.90;;;;;;5010852;28;12156;-44
2022/03/13 02:23:31;;;;;;;;;2.50;1.00;14.70;99.90;;;;;;5012278;28;11158;-43
2022/03/13 02:26:08;;;;;;;;;1.00;1.00;14.70;99.90;;;;;;5027764;28;11426;-46
2022/03/13 02:28:51;;;;;;;;;1.25;1.25;14.70;99.90;;;;;;5006014;28;11516;-46
2022/03/13 02:31:35;;;;;;;;;1.00;1.00;14.70;99.90;;;;;;5005541;28;12356;-44
2022/03/13 02:34:12;;;;;;;;;1.00;1.00;14.60;99.90;;;;;;5011820;28;11462;-51
2022/03/13 02:36:43;;;;;;;;;0.50;0.50;14.60;99.90;;;;;;5008745;28;11460;-46
2022/03/13 02:39:14;;;;;;;;;1.00;1.00;14.70;99.90;;;;;;5022736;28;11479;-46
2022/03/13 02:41:46;;;;;;;;;0.00;0.00;14.60;99.90;;;;;;5009850;28;12299;-42
2022/03/13 02:44:18;;;;;;;;;0.25;0.25;14.60;99.90;;;;;;5010455;28;11509;-45
2022/03/13 02:47:04;;;;;;;;;1.00;1.00;14.70;99.90;;;;;;5003219;28;11510;-47
2022/03/13 02:49:35;;;;;;;;;0.50;0.50;14.60;99.90;;;;;;5010194;28;11458;-45
2022/03/13 02:52:07;;;;;;;;;1.00;1.00;14.50;99.90;;;;;;5008374;28;12275;-45
2022/03/13 02:54:38;;;;;;;;;0.75;0.75;14.60;99.90;;;;;;5013278;28;11505;-46
2022/03/13 02:57:09;;;;;;;;;3.00;2.00;14.50;99.90;;;;;;5009562;28;11466;-46
2022/03/13 02:59:40;;;;;;;;;0.25;0.25;14.50;99.90;;;;;;5012350;28;11527;-46
2022/03/13 03:02:11;;;;;;;;;0.00;0.00;14.50;99.90;;;;;;5011931;28;11572;-44
2022/03/13 03:04:45;;;;;;;;;0.75;0.75;14.40;99.90;;;;;;5006897;28;11446;-47
2022/03/13 03:07:16;;;;;;;;;2.00;1.00;14.40;99.90;;;;;;5008782;28;11557;-46
2022/03/13 03:09:47;;;;;;;;;0.00;0.00;14.40;99.90;;;;;;5009159;28;11467;-46
2022/03/13 03:12:18;;;;;;;;;0.50;0.50;14.40;99.90;;;;;;5009785;28;11581;-44
2022/03/13 03:14:50;;;;;;;;;0.50;0.50;14.30;99.90;;;;;;5027697;28;11590;-44
2022/03/13 03:17:20;;;;;;;;;0.00;0.00;14.30;99.90;;;;;;5008800;28;11513;-45
2022/03/13 03:19:51;;;;;;;;;0.00;0.00;14.40;99.90;;;;;;5007249;28;11479;-44
2022/03/13 03:22:21;;;;;;;;;1.00;1.00;14.30;99.90;;;;;;5006879;28;11453;-49
2022/03/13 03:24:54;;;;;;;;;2.00;2.00;14.30;99.90;;;;;;5015802;28;11490;-43
2022/03/13 03:27:24;;;;;;;;;0.00;0.00;14.30;99.90;;;;;;5011832;28;11469;-48
2022/03/13 03:29:56;;;;;;;;;1.00;1.00;14.40;99.90;;;;;;5015333;28;11501;-49
2022/03/13 03:32:25;;;;;;;;;1.00;1.00;14.40;99.90;;;;;;5012627;28;11567;-46
2022/03/13 03:34:56;;;;;;;;;0.00;0.00;14.40;99.90;;;;;;5011290;28;11465;-46
2022/03/13 03:37:31;;;;;;;;;1.00;1.00;14.20;99.90;;;;;;5011539;28;11469;-49
2022/03/13 03:40:01;;;;;;;;;0.00;0.00;14.20;99.90;;;;;;5012847;28;11449;-47
2022/03/13 03:42:35;;;;;;;;;0.25;0.25;14.20;99.90;;;;;;5014543;28;12216;-47
2022/03/13 03:45:06;;;;;;;;;1.00;1.00;14.30;99.90;;;;;;5012465;28;11429;-46
2022/03/13 03:47:36;;;;;;;;;1.25;1.25;14.20;99.90;;;;;;5009538;28;11478;-46
2022/03/13 03:50:06;;;;;;;;;1.25;1.25;14.20;99.90;;;;;;5012746;28;11519;-49
2022/03/13 03:52:38;;;;;;;;;1.00;1.00;14.30;99.90;;;;;;5008899;28;11478;-50
2022/03/13 03:55:09;;;;;;;;;1.00;1.00;14.30;99.90;;;;;;5017633;28;11426;-51
2022/03/13 03:57:40;;;;;;;;;2.00;2.00;14.30;99.90;;;;;;5013685;28;11563;-49
2022/03/13 04:00:11;;;;;;;;;1.00;1.00;14.20;99.90;;;;;;5015541;28;11468;-48
2022/03/13 04:02:42;;;;;;;;;0.75;0.75;14.20;99.90;;;;;;5011729;28;11501;-50
2022/03/13 04:05:13;;;;;;;;;2.00;2.00;14.20;99.90;;;;;;5014004;28;11443;-45
2022/03/13 04:07:45;;;;;;;;;1.75;1.75;14.20;99.90;;;;;;5016136;28;11511;-46
2022/03/13 04:10:16;;;;;;;;;3.00;1.50;14.20;99.90;;;;;;5011995;28;11473;-48
2022/03/13 04:12:47;;;;;;;;;2.00;2.00;14.20;99.90;;;;;;5016670;28;11471;-46
2022/03/13 04:15:18;;;;;;;;;2.00;2.00;14.20;99.90;;;;;;5011326;28;11464;-50
2022/03/13 04:17:50;;;;;;;;;1.50;1.25;14.20;99.90;;;;;;5014443;28;11504;-47
2022/03/13 04:20:21;;;;;;;;;2.00;2.00;14.20;99.90;;;;;;5014128;28;11466;-51
2022/03/13 04:22:52;;;;;;;;;3.75;2.00;14.10;99.90;;;;;;5011853;28;11679;-51
2022/03/13 04:25:26;;;;;;;;;1.00;1.00;14.10;99.90;;;;;;5010234;28;11497;-50
2022/03/13 04:27:58;;;;;;;;;0.00;0.00;14.00;99.90;;;;;;5010319;28;11471;-49
2022/03/13 04:30:30;;;;;;;;;0.00;0.00;14.00;99.90;;;;;;5013083;28;11644;-47
2022/03/13 04:33:00;;;;;;;;;1.25;1.25;14.00;99.90;;;;;;5013539;28;11508;-46
2022/03/13 04:35:30;;;;;;;;;1.00;1.00;14.00;99.90;;;;;;5010170;28;11478;-47
2022/03/13 04:38:00;;;;;;;;;2.75;2.50;14.00;99.90;;;;;;5012943;28;11580;-46
2022/03/13 04:40:33;;;;;;;;;0.75;0.75;13.90;99.90;;;;;;5010024;28;11442;-48
2022/03/13 04:43:07;;;;;;;;;1.00;1.00;13.90;99.90;;;;;;5015485;28;11469;-49
2022/03/13 04:45:38;;;;;;;;;1.00;1.00;14.00;99.90;;;;;;5015537;28;11448;-46
2022/03/13 04:48:09;;;;;;;;;0.00;0.00;14.00;99.90;;;;;;5011551;28;11461;-45
2022/03/13 04:50:40;;;;;;;;;1.00;1.00;13.90;99.90;;;;;;5015804;28;11483;-46
2022/03/13 04:53:10;;;;;;;;;0.75;0.75;14.00;99.90;;;;;;5011954;28;11492;-45
2022/03/13 04:55:41;;;;;;;;;1.50;1.50;13.90;99.90;;;;;;5011211;28;11500;-45
2022/03/13 04:58:15;;;;;;;;;1.50;1.50;14.00;99.90;;;;;;5013312;28;11459;-46
2022/03/13 05:00:49;;;;;;;;;2.75;2.75;13.90;99.90;;;;;;5015388;28;11467;-46
2022/03/13 05:03:20;;;;;;;;;5.00;3.00;13.90;99.90;;;;;;5013321;28;11711;-47
2022/03/13 05:05:51;;;;;;;;;3.00;3.00;13.90;99.90;;;;;;5017734;28;11481;-48
2022/03/13 05:08:23;;;;;;;;;2.50;2.50;13.90;99.90;;;;;;5013851;28;11580;-46
2022/03/13 05:10:54;;;;;;;;;3.75;3.75;13.90;99.90;;;;;;5012066;28;11537;-46
2022/03/13 05:13:27;;;;;;;;;3.25;3.25;13.90;99.90;;;;;;5015185;28;11462;-46
2022/03/13 05:15:57;;;;;;;;;4.00;4.00;13.90;99.90;;;;;;5031411;28;11509;-46
2022/03/13 05:18:29;;;;;;;;;2.00;2.00;13.80;99.90;;;;;;5008113;28;11445;-47
2022/03/13 05:20:59;;;;;;;;;1.00;1.00;13.80;99.90;;;;;;5015745;28;11461;-46
2022/03/13 05:23:30;;;;;;;;;1.00;1.00;13.80;99.90;;;;;;5015183;28;11538;-52
2022/03/13 05:26:01;;;;;;;;;1.50;1.50;13.80;99.90;;;;;;5008127;28;11492;-49
2022/03/13 05:28:32;;;;;;;;;3.75;1.00;13.90;99.90;;;;;;5013601;28;11510;-46
2022/03/13 05:31:04;;;;;;;;;1.00;1.00;13.80;99.90;;;;;;5010665;28;11499;-48
2022/03/13 05:33:34;;;;;;;;;1.00;1.00;13.80;99.90;;;;;;5007951;28;11626;-47
2022/03/13 05:36:07;;;;;;;;;1.00;1.00;13.80;99.90;;;;;;5008815;28;11494;-48
2022/03/13 05:38:38;;;;;;;;;3.00;2.00;13.80;99.90;;;;;;5009436;28;12210;-46
2022/03/13 05:41:13;;;;;;;;;3.75;3.75;13.80;99.90;;;;;;5011458;28;11498;-49
2022/03/13 05:43:43;;;;;;;;;4.00;4.00;13.80;99.90;;;;;;5014216;28;11435;-45
2022/03/13 05:46:14;;;;;;;;;4.00;3.00;13.80;99.90;;;;;;5005472;28;11591;-45
2022/03/13 05:48:45;;;;;;;;;3.00;3.00;13.80;99.90;;;;;;5010383;28;11518;-45
2022/03/13 05:51:14;;;;;;;;;2.00;2.00;13.80;99.90;;;;;;5009236;28;11477;-45
2022/03/13 05:53:45;;;;;;;;;3.50;3.00;13.80;99.90;;;;;;5008999;28;11489;-47
2022/03/13 05:56:17;;;;;;;;;4.00;2.50;13.80;99.90;;;;;;5009502;28;11444;-46
2022/03/13 05:58:46;;;;;;;;;3.00;3.00;13.80;99.90;;;;;;5014452;28;11432;-47
2022/03/13 06:01:18;;;;;;;;;5.00;3.25;13.80;99.90;;;;;;5012587;28;11895;-48
2022/03/13 06:03:54;;;;;;;;;4.00;4.00;13.80;99.90;;;;;;5014872;28;11493;-45
2022/03/13 06:06:24;;;;;;;;;2.00;2.00;13.80;99.90;;;;;;5010392;28;11474;-47
2022/03/13 06:08:56;;;;;;;;;3.00;3.00;13.80;99.90;;;;;;5008110;28;11486;-46
2022/03/13 06:11:27;;;;;;;;;2.25;2.00;13.80;99.90;;;;;;5013184;28;11458;-45
2022/03/13 06:13:57;;;;;;;;;0.25;0.25;13.80;99.90;;;;;;5009748;28;11519;-44
2022/03/13 06:16:27;;;;;;;;;2.50;2.50;13.80;99.90;;;;;;5003255;28;11622;-45
2022/03/13 06:18:58;;;;;;;;;2.75;2.75;13.80;99.90;;;;;;5008816;28;11422;-48
2022/03/13 06:21:28;;;;;;;;;2.00;2.00;13.80;99.90;;;;;;5009730;28;11439;-45
2022/03/13 06:23:58;;;;;;;;;2.50;2.50;13.70;99.90;;;;;;5009799;28;11472;-46
2022/03/13 06:26:29;;;;;;;;;3.00;1.75;13.70;99.90;;;;;;5010709;28;11564;-47
2022/03/13 06:29:01;;;;;;;;;3.00;3.00;13.70;99.90;;;;;;5008709;28;11880;-44
2022/03/13 06:31:35;;;;;;;;;2.00;2.00;13.70;99.90;;;;;;5003547;28;12316;-47
2022/03/13 06:34:05;;;;;;;;;2.00;2.00;13.70;99.90;;;;;;5003013;28;11474;-47
2022/03/13 06:36:39;;;;;;;;;3.00;3.00;13.70;99.90;;;;;;5006586;28;11466;-45
2022/03/13 06:39:09;;;;;;;;;2.00;2.00;13.70;99.90;;;;;;5007627;28;11608;-45
2022/03/13 06:41:40;;;;;;;;;3.75;2.50;13.70;99.90;;;;;;5008950;28;11474;-48
2022/03/13 06:44:11;;;;;;;;;3.00;3.00;13.70;99.90;;;;;;5009621;28;11434;-48
2022/03/13 06:46:41;;;;;;;;;2.00;2.00;13.70;99.90;;;;;;5004381;28;11434;-45
2022/03/13 06:49:12;;;;;;;;;4.25;4.25;13.70;99.90;;;;;;5002276;28;11561;-46
2022/03/13 06:51:43;;;;;;;;;3.00;3.00;13.70;99.90;;;;;;5003366;28;11992;-46
2022/03/13 06:54:13;;;;;;;;;3.25;3.25;13.70;99.90;;;;;;5007019;28;11508;-48
2022/03/13 06:56:44;;;;;;;;;3.00;1.75;13.70;99.90;;;;;;5010170;28;11477;-46
2022/03/13 06:59:15;;;;;;;;;3.00;3.00;13.70;99.90;;;;;;5006527;28;11488;-48
2022/03/13 07:01:46;;;;;;;;;3.00;3.00;13.70;99.90;;;;;;5005825;28;12260;-48
2022/03/13 07:04:17;;;;;;;;;3.25;3.25;13.70;99.90;;;;;;5008480;28;11470;-45
2022/03/13 07:06:47;;;;;;;;;2.75;1.50;13.70;99.90;;;;;;4978081;28;11604;-47
2022/03/13 07:09:17;;;;;;;;;2.00;2.00;13.80;99.90;;;;;;5009025;28;11495;-46
2022/03/13 07:11:50;;;;;;;;;1.00;1.00;13.70;99.90;;;;;;5017657;28;11455;-46
2022/03/13 07:14:21;;;;;;;;;3.00;3.00;13.70;99.90;;;;;;5008349;28;11548;-46
2022/03/13 07:16:54;;;;;;;;;3.50;1.00;13.70;99.90;;;;;;4999243;28;12086;-46
2022/03/13 07:19:25;;;;;;;;;1.75;1.75;13.70;99.90;;;;;;5013502;28;11444;-48
2022/03/13 07:21:55;;;;;;;;;2.00;2.00;13.70;99.90;;;;;;5005676;28;11532;-45
2022/03/13 07:24:26;;;;;;;;;1.50;1.50;13.70;99.90;;;;;;5010241;28;11520;-47
2022/03/13 07:26:57;;;;;;;;;1.75;1.75;13.70;99.90;;;;;;5013850;28;11460;-44
2022/03/13 07:29:28;;;;;;;;;2.50;2.00;13.70;99.90;;;;;;5016665;28;11449;-44
2022/03/13 07:31:59;;;;;;;;;2.75;2.75;13.70;99.90;;;;;;5013313;28;12223;-48
2022/03/13 07:34:30;;;;;;;;;3.50;3.50;13.70;99.90;;;;;;5009714;28;11507;-46
2022/03/13 07:37:02;;;;;;;;;2.00;2.00;13.70;99.90;;;;;;5013742;28;11690;-45
2022/03/13 07:39:34;;;;;;;;;2.50;2.50;13.70;99.90;;;;;;5013281;28;11488;-46
2022/03/13 07:42:12;;;;;;;;;2.25;2.25;13.70;99.90;;;;;;5014827;28;11467;-47
2022/03/13 07:44:44;;;;;;;;;2.00;2.00;13.70;99.90;;;;;;5015249;28;12647;-45
2022/03/13 07:47:15;;;;;;;;;3.00;3.00;13.60;99.90;;;;;;5010654;28;11448;-47
2022/03/13 07:49:45;;;;;;;;;1.75;1.75;13.60;99.90;;;;;;5007745;28;11487;-48
2022/03/13 07:52:16;;;;;;;;;1.00;1.00;13.70;99.90;;;;;;5016740;28;11479;-45
2022/03/13 07:54:46;;;;;;;;;1.50;1.50;13.70;99.90;;;;;;5015071;28;11611;-47
2022/03/13 07:57:18;;;;;;;;;1.75;1.75;13.70;99.90;;;;;;5007667;28;11596;-47
2022/03/13 07:59:48;;;;;;;;;2.00;2.00;13.70;99.90;;;;;;5011338;28;11549;-44
2022/03/13 08:02:19;;;;;;;;;2.00;2.00;13.70;99.90;;;;;;5011442;28;11477;-46
2022/03/13 08:04:51;;;;;;;;;3.00;3.00;13.70;99.90;;;;;;5013250;28;11495;-49
2022/03/13 08:07:21;;;;;;;;;1.75;1.75;13.70;99.90;;;;;;5013231;28;11466;-46
2022/03/13 08:09:55;;;;;;;;;2.25;2.25;13.70;99.90;;;;;;5008854;28;11640;-47
2022/03/13 08:12:25;;;;;;;;;1.00;1.00;13.70;99.90;;;;;;5014388;28;11457;-45
2022/03/13 08:14:55;;;;;;;;;1.75;1.75;13.70;99.90;;;;;;5013474;28;11463;-45
2022/03/13 08:17:27;;;;;;;;;1.75;1.75;13.70;99.90;;;;;;5007110;28;11445;-45
2022/03/13 08:19:59;;;;;;;;;3.25;3.00;13.70;99.90;;;;;;5010390;28;11532;-44
2022/03/13 08:22:32;;;;;;;;;1.00;1.00;13.70;99.90;;;;;;5006197;28;12292;-48
2022/03/13 08:25:03;;;;;;;;;1.00;1.00;13.60;99.90;;;;;;5012244;28;11467;-49
2022/03/13 08:27:34;;;;;;;;;3.75;2.75;13.60;99.90;;;;;;5009390;28;11446;-45
2022/03/13 08:30:07;;;;;;;;;2.75;2.00;13.70;99.90;;;;;;5018763;28;11456;-50
2022/03/13 08:32:39;;;;;;;;;2.75;1.00;13.70;99.90;;;;;;5010681;28;11987;-44
2022/03/13 08:35:11;;;;;;;;;1.00;1.00;13.70;99.90;;;;;;5014400;28;12689;-47
2022/03/13 08:37:44;;;;;;;;;1.00;1.00;13.70;99.90;;;;;;5009325;28;12216;-44
2022/03/13 08:40:14;;;;;;;;;1.00;1.00;13.70;99.90;;;;;;5013671;28;11437;-48
2022/03/13 08:42:45;;;;;;;;;2.00;2.00;13.60;99.90;;;;;;5008717;28;11516;-47
2022/03/13 08:45:15;;;;;;;;;1.50;1.50;13.60;99.90;;;;;;5012336;28;11873;-48
2022/03/13 08:47:47;;;;;;;;;0.00;0.00;13.60;99.90;;;;;;5005372;28;11697;-45
2022/03/13 08:50:20;;;;;;;;;1.50;1.50;13.60;99.90;;;;;;5017315;28;11483;-44
2022/03/13 08:52:51;;;;;;;;;1.25;1.25;13.60;99.90;;;;;;5014234;28;11451;-47
2022/03/13 08:55:27;;;;;;;;;2.00;2.00;13.60;99.90;;;;;;5011350;28;11467;-47
2022/03/13 08:57:57;;;;;;;;;1.50;1.50;13.60;99.90;;;;;;5011096;28;11523;-46
2022/03/13 09:00:27;;;;;;;;;1.00;1.00;13.60;99.90;;;;;;5014038;28;11937;-45
2022/03/13 09:02:58;;;;;;;;;2.00;2.00;13.60;99.90;;;;;;5006918;28;12192;-47
2022/03/13 09:05:29;;;;;;;;;4.50;3.00;13.60;99.90;;;;;;5012562;28;11446;-46
2022/03/13 09:08:00;;;;;;;;;3.75;3.75;13.60;99.90;;;;;;5012781;28;12358;-49
2022/03/13 09:10:30;;;;;;;;;3.50;3.50;13.60;99.90;;;;;;5013688;28;11633;-51
2022/03/13 09:13:00;;;;;;;;;1.75;1.50;13.60;99.90;;;;;;5013329;28;11444;-47
2022/03/13 09:15:31;;;;;;;;;2.25;2.25;13.60;99.90;;;;;;5010721;28;11521;-44
2022/03/13 09:18:02;;;;;;;;;1.50;1.50;13.60;99.90;;;;;;5006977;28;11587;-46
2022/03/13 09:20:33;;;;;;;;;1.75;1.75;13.60;99.90;;;;;;5010811;28;11403;-46
2022/03/13 09:23:08;;;;;;;;;1.00;1.00;13.60;99.90;;;;;;5009472;28;11599;-47
2022/03/13 09:25:38;;;;;;;;;2.00;2.00;13.60;99.90;;;;;;5007559;28;11470;-46
2022/03/13 09:28:09;;;;;;;;;2.00;2.00;13.60;99.90;;;;;;5012060;28;11473;-46
2022/03/13 09:30:40;;;;;;;;;2.25;2.25;13.60;99.90;;;;;;5007859;28;11481;-47
2022/03/13 09:33:12;;;;;;;;;1.50;1.50;13.60;99.90;;;;;;5011562;28;11506;-46
2022/03/13 09:35:44;;;;;;;;;2.00;2.00;13.60;99.90;;;;;;5011693;28;11604;-47
2022/03/13 09:38:16;;;;;;;;;3.00;3.00;13.60;99.90;;;;;;5011153;28;11445;-44
2022/03/13 09:40:46;;;;;;;;;1.00;1.00;13.60;99.90;;;;;;5006988;28;11493;-46
2022/03/13 09:43:19;;;;;;;;;3.25;3.25;13.60;99.90;;;;;;5016302;28;11470;-48
2022/03/13 09:45:51;;;;;;;;;2.75;2.75;13.60;99.90;;;;;;5006245;28;11454;-48
2022/03/13 09:48:22;;;;;;;;;2.25;2.25;13.60;99.90;;;;;;5011922;28;11507;-48
2022/03/13 09:50:54;;;;;;;;;2.00;2.00;13.60;99.90;;;;;;5003856;28;12279;-46
2022/03/13 09:53:27;;;;;;;;;3.00;3.00;13.60;99.90;;;;;;5011050;28;11484;-45
2022/03/13 09:56:01;;;;;;;;;3.00;3.00;13.60;99.90;;;;;;5007100;28;11484;-46
2022/03/13 09:58:34;;;;;;;;;4.00;4.00;13.60;99.90;;;;;;5011063;28;11455;-47
2022/03/13 10:01:08;;;;;;;;;3.25;3.25;13.50;99.90;;;;;;5008845;28;11508;-45
2022/03/13 10:03:39;;;;;;;;;5.25;5.25;13.60;99.90;;;;;;5012204;28;11444;-47
2022/03/13 10:06:10;;;;;;;;;4.50;4.50;13.60;99.90;;;;;;5008968;28;11482;-46
2022/03/13 10:08:42;;;;;;;;;5.50;5.50;13.60;99.90;;;;;;5008986;28;11495;-47
2022/03/13 10:11:13;;;;;;;;;6.25;5.50;13.60;99.90;;;;;;5013809;28;11452;-46
2022/03/13 10:13:47;;;;;;;;;3.00;3.00;13.60;99.90;;;;;;5008039;28;11499;-45
2022/03/13 10:16:37;;;;;;;;;4.25;4.25;13.60;99.90;;;;;;5010259;28;11533;-48
2022/03/13 10:19:18;;;;;;;;;5.75;5.75;13.60;99.90;;;;;;5008411;28;11474;-47
2022/03/13 10:22:07;;;;;;;;;4.25;4.25;13.60;99.90;;;;;;5005070;28;11603;-47
2022/03/13 10:24:42;;;;;;;;;5.00;5.00;13.60;99.90;;;;;;5009818;28;11526;-45
2022/03/13 10:27:23;;;;;;;;;5.75;5.75;13.60;99.90;;;;;;5006664;28;11566;-44
2022/03/13 10:29:53;;;;;;;;;6.75;5.25;13.60;99.90;;;;;;5009981;28;11504;-47
2022/03/13 10:32:24;;;;;;;;;6.75;6.25;13.60;99.90;;;;;;5006590;28;11536;-49
2022/03/13 10:34:57;;;;;;;;;6.25;6.25;13.50;99.90;;;;;;5008654;28;11556;-49
2022/03/13 10:37:43;;;;;;;;;7.75;7.00;13.60;99.90;;;;;;5009530;28;12873;-46
2022/03/13 10:40:24;;;;;;;;;5.00;5.00;13.60;99.90;;;;;;5009153;28;11702;-45
2022/03/13 10:42:58;;;;;;;;;5.00;5.00;13.60;99.90;;;;;;5011405;28;11549;-46
2022/03/13 10:45:39;;;;;;;;;5.00;5.00;13.60;99.90;;;;;;5008389;28;11492;-48
2022/03/13 10:48:32;;;;;;;;;3.00;3.00;13.50;99.90;;;;;;5009327;28;11438;-46
2022/03/13 10:51:08;;;;;;;;;5.50;3.00;13.50;99.90;;;;;;5009564;28;11568;-45
2022/03/13 10:53:42;;;;;;;;;4.25;4.00;13.60;99.90;;;;;;5015170;28;12108;-48
2022/03/13 10:56:15;;;;;;;;;5.00;5.00;13.50;99.90;;;;;;5005848;28;11590;-46
2022/03/13 10:58:47;;;;;;;;;3.00;3.00;13.60;99.90;;;;;;5008970;28;11431;-46
2022/03/13 11:01:19;;;;;;;;;3.00;3.00;13.60;99.90;;;;;;5001225;28;11567;-46
2022/03/13 11:03:56;;;;;;;;;5.00;3.00;13.60;99.90;;;;;;5005395;28;11494;-49
2022/03/13 11:06:27;;;;;;;;;3.00;3.00;13.60;99.90;;;;;;5009982;28;11462;-45
2022/03/13 11:08:58;;;;;;;;;3.00;3.00;13.50;99.90;;;;;;5006875;28;11475;-45
2022/03/13 11:11:28;;;;;;;;;2.25;2.25;13.50;99.90;;;;;;5015504;28;11466;-46
2022/03/13 11:14:02;;;;;;;;;2.25;2.25;13.50;99.90;;;;;;5008203;28;11550;-45
2022/03/13 11:16:33;;;;;;;;;1.00;1.00;13.50;99.90;;;;;;5006539;28;11515;-45
2022/03/13 11:19:05;;;;;;;;;3.00;3.00;13.50;99.90;;;;;;5000228;28;11488;-47
2022/03/13 11:21:35;;;;;;;;;4.25;4.25;13.50;99.90;;;;;;5021445;28;12202;-47
2022/03/13 11:24:07;;;;;;;;;3.75;3.75;13.50;99.90;;;;;;5009743;28;11532;-46
2022/03/13 11:26:40;;;;;;;;;2.00;2.00;13.50;99.90;;;;;;5012522;28;11610;-48
2022/03/13 11:29:13;;;;;;;;;3.50;3.50;13.50;99.90;;;;;;5024168;28;11626;-46
2022/03/13 11:31:44;;;;;;;;;5.00;4.00;13.50;99.90;;;;;;5004008;28;11502;-45
2022/03/13 11:34:21;;;;;;;;;3.00;3.00;13.50;99.90;;;;;;5006465;28;11944;-46
2022/03/13 11:36:53;;;;;;;;;2.00;2.00;13.50;99.90;;;;;;5013746;28;11462;-44
2022/03/13 11:39:32;;;;;;;;;2.25;2.25;13.50;99.90;;;;;;5009845;28;11429;-45
2022/03/13 11:42:03;;;;;;;;;4.00;4.00;13.50;99.90;;;;;;5005410;28;11488;-46
2022/03/13 11:44:34;;;;;;;;;3.00;3.00;13.50;99.90;;;;;;5008124;28;11508;-45
2022/03/13 11:47:22;;;;;;;;;5.00;5.00;13.50;99.90;;;;;;5010094;28;11644;-45
2022/03/13 11:49:52;;;;;;;;;4.00;2.75;13.50;99.90;;;;;;5009506;28;11463;-45
2022/03/13 11:52:27;;;;;;;;;4.50;4.00;13.50;99.90;;;;;;5008067;28;11577;-45
2022/03/13 11:55:11;;;;;;;;;3.25;3.25;13.50;99.90;;;;;;5008023;28;11505;-47
2022/03/13 11:57:46;;;;;;;;;5.00;4.00;13.50;99.90;;;;;;5004997;28;11482;-46
2022/03/13 12:00:16;;;;;;;;;4.50;4.50;13.50;99.90;;;;;;5009080;28;11659;-45
2022/03/13 12:02:47;;;;;;;;;4.25;4.25;13.40;99.90;;;;;;5007167;28;11542;-44
2022/03/13 12:05:34;;;;;;;;;6.00;4.50;13.50;99.90;;;;;;5004714;28;11656;-46
2022/03/13 12:08:08;;;;;;;;;2.75;2.75;13.50;99.90;;;;;;5007703;28;11505;-47
2022/03/13 12:10:47;;;;;;;;;3.00;3.00;13.40;99.90;;;;;;5006483;28;11537;-48
2022/03/13 12:13:21;;;;;;;;;3.25;2.00;13.50;99.90;;;;;;5007719;28;11566;-45
2022/03/13 12:15:52;;;;;;;;;3.75;3.00;13.50;99.90;;;;;;5011124;28;11488;-47
2022/03/13 12:18:27;;;;;;;;;3.00;3.00;13.50;99.90;;;;;;5008834;28;11474;-47
2022/03/13 12:21:11;;;;;;;;;4.00;2.25;13.50;99.90;;;;;;5012183;28;11509;-46
2022/03/13 12:23:43;;;;;;;;;5.00;3.00;13.50;99.90;;;;;;5010629;28;11535;-45
2022/03/13 12:26:39;;;;;;;;;5.75;3.00;13.50;99.90;;;;;;5016318;28;11450;-44
2022/03/13 12:29:12;;;;;;;;;3.50;2.00;13.50;99.90;;;;;;5012542;28;12214;-47
2022/03/13 12:31:48;;;;;;;;;2.50;2.50;13.50;99.90;;;;;;5015070;28;11476;-45
2022/03/13 12:34:30;;;;;;;;;4.00;2.00;13.50;99.90;;;;;;5011705;28;11469;-45
2022/03/13 12:37:09;;;;;;;;;4.00;2.00;13.50;99.90;;;;;;5012847;28;11672;-47
2022/03/13 12:39:49;;;;;;;;;0.75;0.75;13.50;99.90;;;;;;5014001;28;11483;-43
2022/03/13 12:42:24;;;;;;;;;2.00;2.00;13.50;99.90;;;;;;5010693;28;11453;-44
2022/03/13 12:45:15;;;;;;;;;3.25;3.25;13.50;99.90;;;;;;5015863;28;11493;-46
2022/03/13 12:47:47;;;;;;;;;3.00;3.00;13.50;99.90;;;;;;5009091;28;12240;-45
2022/03/13 12:50:19;;;;;;;;;2.00;2.00;13.50;99.90;;;;;;5015907;28;11493;-44
2022/03/13 12:53:01;;;;;;;;;2.25;2.25;13.50;99.90;;;;;;5014516;28;11462;-45
2022/03/13 12:55:32;;;;;;;;;2.00;2.00;13.50;99.90;;;;;;5008896;28;11628;-45
2022/03/13 12:58:05;;;;;;;;;2.00;2.00;13.50;99.90;;;;;;5010086;28;11627;-45
2022/03/13 13:00:37;;;;;;;;;2.50;2.50;13.50;99.90;;;;;;5013021;28;11491;-45
2022/03/13 13:03:08;;;;;;;;;3.00;3.00;13.50;99.90;;;;;;5009059;28;12245;-46
2022/03/13 13:05:38;;;;;;;;;5.25;4.50;13.50;99.90;;;;;;5013898;28;11453;-45
2022/03/13 13:08:09;;;;;;;;;4.50;4.00;13.50;99.90;;;;;;5010896;28;12264;-47
2022/03/13 13:10:39;;;;;;;;;3.00;3.00;13.50;99.90;;;;;;5003064;28;11489;-46
2022/03/13 13:13:09;;;;;;;;;3.75;3.75;13.50;99.90;;;;;;5010377;28;11496;-45